Time;durP1;ratioP1;P1;durP2;ratioP2;P2;SDS_P1;SDS_P2;PMS_P1;PMS_P2;Temp;Humidity;BMP_temperature;BMP_pressure;BME280_temperature;BME280_humidity;BME280_pressure;Samples;Min_cycle;Max_cycle;Signal;HPM_P1;HPM_P2
2022/01/15 00:01:49;;;;;;;4.97;4.40;;;-0.10;86.10;-1.00;99577.00;;;;5116515;28;20194;-79
2022/01/15 00:04:16;;;;;;;4.80;3.07;;;-0.10;86.10;-0.90;99626.00;;;;5116326;28;20370;-78
2022/01/15 00:06:43;;;;;;;4.30;3.93;;;0.00;85.60;-1.00;99612.00;;;;5116586;28;20236;-80
2022/01/15 00:09:11;;;;;;;12.37;3.40;;;-0.10;85.30;-1.10;99613.00;;;;5098465;28;20346;-80
2022/01/15 00:11:38;;;;;;;6.70;4.50;;;-0.10;85.10;-1.10;99612.00;;;;5116458;28;20232;-79
2022/01/15 00:14:13;;;;;;;2.97;2.67;;;-0.20;85.10;-1.10;99599.00;;;;5117280;28;20229;-82
2022/01/15 00:16:47;;;;;;;3.80;3.53;;;-0.20;84.80;-1.10;99591.00;;;;5116484;28;20193;-82
2022/01/15 00:19:16;;;;;;;8.30;4.23;;;-0.20;85.10;-1.20;99607.00;;;;5098334;28;20202;-76
2022/01/15 00:21:43;;;;;;;2.77;2.57;;;-0.30;84.90;-1.30;99605.00;;;;5116186;28;20237;-76
2022/01/15 00:24:12;;;;;;;2.37;2.17;;;-0.30;85.70;-1.30;99596.00;;;;5098038;28;20233;-81
2022/01/15 00:26:38;;;;;;;5.67;4.13;;;-0.30;85.40;-1.40;99595.00;;;;5115745;28;20249;-82
2022/01/15 00:29:05;;;;;;;4.33;3.43;;;-0.30;85.30;-1.30;99593.00;;;;5098137;28;20319;-81
2022/01/15 00:31:34;;;;;;;4.73;3.00;;;-0.30;85.20;-1.30;99601.00;;;;5115949;28;20209;-81
2022/01/15 00:34:01;;;;;;;6.13;3.20;;;-0.30;85.20;-1.10;99599.00;;;;5115999;28;20204;-81
2022/01/15 00:36:28;;;;;;;2.97;2.77;;;-0.20;85.50;-1.40;99601.00;;;;5097996;28;20308;-79
2022/01/15 00:38:56;;;;;;;6.47;3.57;;;-0.30;84.70;-1.30;99598.00;;;;5116013;28;20206;-84
2022/01/15 00:41:23;;;;;;;5.50;3.57;;;-0.40;84.80;-1.20;99591.00;;;;5115905;28;20260;-75
2022/01/15 00:43:49;;;;;;;6.20;5.40;;;-0.30;85.10;-1.30;99596.00;;;;5115838;28;20213;-75
2022/01/15 00:46:16;;;;;;;3.07;2.87;;;-0.40;84.80;-1.30;99593.00;;;;5115903;28;20210;-79
2022/01/15 00:48:43;;;;;;;2.20;2.00;;;-0.40;84.80;-1.40;99592.00;;;;5115864;28;20632;-83
2022/01/15 00:51:10;;;;;;;5.70;3.97;;;-0.40;84.90;-1.40;99587.00;;;;5098273;28;20198;-81
2022/01/15 00:53:39;;;;;;;10.00;3.80;;;-0.40;84.90;-1.30;99593.00;;;;5097714;28;20201;-83
2022/01/15 00:56:05;;;;;;;2.53;2.27;;;-0.40;84.90;-1.40;99588.00;;;;5098285;28;20245;-83
2022/01/15 00:58:35;;;;;;;5.87;4.17;;;-0.40;85.10;-1.40;99590.00;;;;5115845;28;20208;-83
2022/01/15 01:01:02;;;;;;;3.33;3.10;;;-0.40;85.00;-1.40;99580.00;;;;5115600;28;20237;-80
2022/01/15 01:03:28;;;;;;;3.83;3.50;;;-0.40;85.00;-1.40;99578.00;;;;5115585;28;20241;-82
2022/01/15 01:05:54;;;;;;;3.70;3.30;;;-0.40;85.00;-1.40;99581.00;;;;5115586;28;20574;-80
2022/01/15 01:08:22;;;;;;;8.03;4.40;;;-0.40;84.60;-1.40;99589.00;;;;5115693;28;20246;-81
2022/01/15 01:10:52;;;;;;;4.27;3.87;;;-0.40;85.10;-1.50;99598.00;;;;5116022;28;20248;-80
2022/01/15 01:24:34;;;;;;;4.17;3.60;;;-0.50;84.90;-1.60;99581.00;;;;5115264;28;20227;-82
2022/01/15 01:27:02;;;;;;;3.50;2.40;;;-0.60;85.10;-1.60;99572.00;;;;5097173;28;20271;-84
2022/01/15 01:29:39;;;;;;;4.20;3.87;;;-0.60;84.90;-1.70;99575.00;;;;5115181;28;20209;-82
2022/01/15 01:32:12;;;;;;;5.80;4.77;;;-0.60;85.00;-1.50;99570.00;;;;5114920;28;20228;-78
2022/01/15 01:34:43;;;;;;;3.10;2.87;;;-0.60;85.80;-1.50;99565.00;;;;5115016;28;20646;-84
2022/01/15 01:37:14;;;;;;;4.80;4.40;;;-0.60;85.20;-1.50;99578.00;;;;5114089;28;20224;-83
2022/01/15 01:39:46;;;;;;;3.57;3.27;;;-0.60;85.10;-1.70;99571.00;;;;5115021;28;20214;-83
2022/01/15 01:42:32;;;;;;;4.70;3.33;;;-0.60;84.80;-1.70;99579.00;;;;5114831;28;20228;-82
2022/01/15 01:45:01;;;;;;;3.37;3.17;;;-0.70;84.90;-1.60;99576.00;;;;5114671;28;20752;-74
2022/01/15 01:47:39;;;;;;;3.87;3.57;;;-0.70;85.40;-1.70;99582.00;;;;5114865;28;20258;-74
2022/01/15 01:50:12;;;;;;;7.20;4.47;;;-0.70;85.00;-1.70;99585.00;;;;5114881;28;20220;-74
2022/01/15 01:52:40;;;;;;;4.60;4.30;;;-0.70;85.40;-1.80;99581.00;;;;5114853;28;20218;-74
2022/01/15 01:55:09;;;;;;;3.07;2.77;;;-0.80;85.10;-1.70;99571.00;;;;5114687;28;20335;-74
2022/01/15 01:57:37;;;;;;;3.73;3.40;;;-0.80;85.50;-1.80;99574.00;;;;5114533;28;20299;-75
2022/01/15 02:00:07;;;;;;;3.53;3.07;;;-0.70;85.10;-1.80;99579.00;;;;5114722;28;20206;-75
2022/01/15 02:02:34;;;;;;;3.93;3.27;;;-0.80;84.70;-2.00;99580.00;;;;5114546;28;20234;-74
2022/01/15 02:05:04;;;;;;;2.27;2.17;;;-0.90;84.70;-2.10;99581.00;;;;5114636;28;20531;-74
2022/01/15 02:07:30;;;;;;;4.47;3.07;;;-1.00;85.30;-1.90;99575.00;;;;5114555;28;20221;-74
2022/01/15 02:09:58;;;;;;;2.30;2.10;;;-0.90;86.20;-2.00;99574.00;;;;5114326;28;20281;-75
2022/01/15 02:12:25;;;;;;;3.83;2.57;;;-0.90;86.10;-1.80;99574.00;;;;5114437;28;20232;-74
2022/01/15 02:14:52;;;;;;;2.53;2.33;;;-0.90;86.30;-1.70;99571.00;;;;5114508;28;20190;-76
2022/01/15 02:17:22;;;;;;;2.37;2.17;;;-0.80;86.40;-1.70;99561.00;;;;5114230;28;20623;-74
2022/01/15 02:20:21;;;;;;;3.23;2.83;;;-0.80;85.70;-1.80;99552.00;;;;5114368;28;20205;-76
2022/01/15 02:25:41;;;;;;;5.40;2.90;;;-0.80;85.00;-1.90;99562.00;;;;5114345;28;20225;-76
2022/01/15 02:28:08;;;;;;;3.87;2.43;;;-0.90;85.50;-1.90;99550.00;;;;5114263;28;20201;-74
2022/01/15 02:30:38;;;;;;;5.13;3.67;;;-0.90;85.60;-1.80;99546.00;;;;5114110;28;20194;-75
2022/01/15 02:33:06;;;;;;;5.73;3.63;;;-0.80;85.70;-1.80;99547.00;;;;5114286;28;20197;-75
2022/01/15 02:35:34;;;;;;;2.33;2.17;;;-0.80;85.50;-1.80;99551.00;;;;5096525;28;20610;-75
2022/01/15 02:38:04;;;;;;;2.40;2.30;;;-0.80;85.20;-2.00;99551.00;;;;5114060;28;20315;-75
2022/01/15 02:40:33;;;;;;;1.93;1.83;;;-0.80;85.10;-1.90;99547.00;;;;5114010;28;20294;-75
2022/01/15 02:43:04;;;;;;;2.17;2.07;;;-0.90;85.30;-1.90;99502.00;;;;5113988;28;20213;-76
2022/01/15 02:45:32;;;;;;;1.90;1.80;;;-0.90;85.50;-1.90;99537.00;;;;5113995;28;20221;-75
2022/01/15 02:48:02;;;;;;;8.37;3.13;;;-0.90;85.40;-2.00;99527.00;;;;5114458;28;20196;-74
2022/01/15 02:50:29;;;;;;;4.23;3.37;;;-1.00;85.10;-1.90;99530.00;;;;5117421;28;20692;-76
2022/01/15 02:53:01;;;;;;;2.40;2.27;;;-1.00;85.10;-1.90;99525.00;;;;5117619;28;20351;-74
2022/01/15 02:55:28;;;;;;;2.53;2.33;;;-0.90;85.00;-1.90;99520.00;;;;5117577;28;20185;-74
2022/01/15 02:57:57;;;;;;;2.93;2.57;;;-0.90;85.00;-1.90;99522.00;;;;5117355;28;20277;-74
2022/01/15 03:00:25;;;;;;;4.30;2.77;;;-0.90;84.90;-1.90;99525.00;;;;5117391;28;20204;-74
2022/01/15 03:02:52;;;;;;;3.23;2.93;;;-0.90;84.90;-2.00;99518.00;;;;5117429;28;20307;-74
2022/01/15 03:05:21;;;;;;;2.37;2.27;;;-1.00;84.90;-2.00;99518.00;;;;5117347;28;20225;-75
2022/01/15 03:07:50;;;;;;;2.70;2.13;;;-1.00;84.30;-2.10;99517.00;;;;5099281;28;20205;-75
2022/01/15 03:10:18;;;;;;;4.30;3.53;;;-1.00;84.50;-2.10;99511.00;;;;5117202;28;20220;-75
2022/01/15 03:12:47;;;;;;;2.23;2.13;;;-1.00;84.90;-2.10;99506.00;;;;5117214;28;20200;-74
2022/01/15 03:15:19;;;;;;;2.20;2.10;;;-1.10;84.40;-2.00;99507.00;;;;5117202;28;20232;-74
2022/01/15 03:17:49;;;;;;;9.60;3.43;;;-1.00;85.10;-2.00;99500.00;;;;5117190;28;20219;-74
2022/01/15 03:20:20;;;;;;;2.47;2.27;;;-1.00;84.90;-2.00;99503.00;;;;5099148;28;20278;-74
2022/01/15 03:22:47;;;;;;;3.73;2.97;;;-1.00;84.90;-2.10;99506.00;;;;5116996;28;20224;-74
2022/01/15 03:25:15;;;;;;;2.70;2.53;;;-1.00;85.00;-2.10;99506.00;;;;5117192;28;20265;-74
2022/01/15 03:27:43;;;;;;;3.83;2.60;;;-1.10;84.90;-2.20;99490.00;;;;5121866;28;20198;-74
2022/01/15 03:30:12;;;;;;;3.90;3.20;;;-1.10;85.10;-2.20;99496.00;;;;5118018;28;20200;-73
2022/01/15 03:32:42;;;;;;;4.53;2.37;;;-1.20;85.50;-2.10;99503.00;;;;5099855;28;20528;-73
2022/01/15 03:35:12;;;;;;;2.90;2.57;;;-1.20;85.70;-2.10;99468.00;;;;5116918;28;20322;-75
2022/01/15 03:37:40;;;;;;;3.70;3.40;;;-1.10;85.80;-2.10;99494.00;;;;5117022;28;20231;-73
2022/01/15 03:40:12;;;;;;;5.37;3.77;;;-1.10;85.40;-2.10;99497.00;;;;5116993;28;20234;-75
2022/01/15 03:42:39;;;;;;;3.13;2.80;;;-1.10;85.80;-2.10;99466.00;;;;5119634;28;20636;-73
2022/01/15 03:45:07;;;;;;;3.50;3.10;;;-1.10;85.70;-2.10;99486.00;;;;5117822;28;20323;-75
2022/01/15 03:47:37;;;;;;;6.83;4.60;;;-1.10;85.80;-2.20;99483.00;;;;5117076;28;20197;-74
2022/01/15 03:50:05;;;;;;;3.23;2.93;;;-1.20;85.80;-2.20;99479.00;;;;5116630;28;20367;-75
2022/01/15 03:52:32;;;;;;;2.30;2.10;;;-1.20;85.50;-2.20;99485.00;;;;5116551;28;20296;-75
2022/01/15 03:54:58;;;;;;;2.83;2.57;;;-1.20;85.60;-2.20;99482.00;;;;5116697;28;20250;-75
2022/01/15 03:57:25;;;;;;;2.97;2.77;;;-1.20;85.30;-2.30;99485.00;;;;5116697;28;20248;-75
2022/01/15 03:59:51;;;;;;;2.30;2.20;;;-1.20;85.40;-2.30;99481.00;;;;5115845;28;20647;-75
2022/01/15 04:02:19;;;;;;;3.53;3.23;;;-1.30;85.90;-2.30;99482.00;;;;5116584;28;20287;-75
2022/01/15 04:04:45;;;;;;;2.27;2.10;;;-1.30;85.70;-2.30;99487.00;;;;5116242;28;20259;-75
2022/01/15 04:07:12;;;;;;;2.97;2.73;;;-1.30;85.70;-2.10;99468.00;;;;5116391;28;20199;-75
2022/01/15 04:09:38;;;;;;;3.43;3.10;;;-1.20;85.70;-2.10;99468.00;;;;5116464;28;20243;-75
2022/01/15 04:12:06;;;;;;;2.73;2.53;;;-1.20;84.90;-2.30;99474.00;;;;5116359;28;20201;-75
2022/01/15 04:14:35;;;;;;;3.20;2.97;;;-1.30;84.80;-2.40;99478.00;;;;5116269;28;20638;-75
2022/01/15 04:17:02;;;;;;;6.70;2.30;;;-1.30;85.20;-2.40;99467.00;;;;5116069;28;20251;-75
2022/01/15 04:19:29;;;;;;;3.23;2.97;;;-1.30;85.20;-2.30;99475.00;;;;5116017;28;20204;-75
2022/01/15 04:21:56;;;;;;;2.43;2.07;;;-1.30;85.50;-2.20;99465.00;;;;5116123;28;20308;-75
2022/01/15 04:24:22;;;;;;;5.10;3.10;;;-1.30;85.70;-2.20;99457.00;;;;5098257;28;20228;-75
2022/01/15 04:26:49;;;;;;;4.53;3.80;;;-1.30;84.80;-2.30;99470.00;;;;5115996;28;20209;-75
2022/01/15 04:29:15;;;;;;;3.90;3.50;;;-1.30;84.70;-2.30;99469.00;;;;5116023;28;20261;-75
2022/01/15 04:31:47;;;;;;;3.63;2.97;;;-1.30;84.50;-2.40;99468.00;;;;5115830;28;20284;-75
2022/01/15 04:34:19;;;;;;;5.20;4.23;;;-1.40;84.60;-2.40;99457.00;;;;5115863;28;20205;-75
2022/01/15 04:36:47;;;;;;;3.47;3.17;;;-1.40;84.60;-2.30;99463.00;;;;5115779;28;20196;-75
2022/01/15 04:39:15;;;;;;;8.37;4.07;;;-1.40;84.70;-2.40;99467.00;;;;5115821;28;20255;-75
2022/01/15 04:41:41;;;;;;;4.83;3.07;;;-1.40;85.20;-2.30;99464.00;;;;5115776;28;20274;-74
2022/01/15 04:44:08;;;;;;;3.70;3.30;;;-1.30;84.60;-2.40;99471.00;;;;5115594;28;20233;-75
2022/01/15 04:46:36;;;;;;;2.33;2.13;;;-1.40;84.40;-2.30;99471.00;;;;5116049;28;20197;-75
2022/01/15 04:49:04;;;;;;;3.77;3.47;;;-1.40;84.80;-2.30;99457.00;;;;5115666;28;20215;-75
2022/01/15 04:51:32;;;;;;;3.57;3.27;;;-1.40;84.40;-2.40;99470.00;;;;5115505;28;20225;-75
2022/01/15 04:53:59;;;;;;;4.47;4.03;;;-1.40;84.20;-2.40;99466.00;;;;5115652;28;20300;-75
2022/01/15 04:56:26;;;;;;;3.07;2.40;;;-1.40;84.90;-2.30;99473.00;;;;5115609;28;20292;-75
2022/01/15 04:58:55;;;;;;;4.77;4.00;;;-1.40;85.60;-2.30;99472.00;;;;5115633;28;20200;-74
2022/01/15 05:01:24;;;;;;;4.20;3.13;;;-1.40;86.70;-2.40;99429.00;;;;5115631;28;20212;-74
2022/01/15 05:03:50;;;;;;;2.27;2.10;;;-1.40;86.40;-2.30;99474.00;;;;5115409;28;20591;-74
2022/01/15 05:06:19;;;;;;;1.57;1.47;;;-1.40;87.10;-2.30;99476.00;;;;5115544;28;20207;-74
2022/01/15 05:08:47;;;;;;;2.77;2.57;;;-1.40;88.20;-2.30;99477.00;;;;5115444;28;20306;-74
2022/01/15 05:11:21;;;;;;;3.07;2.87;;;-1.40;87.40;-2.40;99480.00;;;;5114924;28;20307;-74
2022/01/15 05:13:49;;;;;;;3.23;2.93;;;-1.40;87.40;-2.40;99478.00;;;;5115154;28;20193;-74
2022/01/15 05:16:16;;;;;;;3.20;2.00;;;-1.40;87.30;-2.50;99484.00;;;;5115482;28;20278;-74
2022/01/15 05:18:42;;;;;;;3.03;2.83;;;-1.50;87.20;-2.50;99487.00;;;;5115352;28;20212;-74
2022/01/15 05:21:09;;;;;;;2.73;2.53;;;-1.50;87.20;-2.50;99475.00;;;;5115309;28;20305;-74
2022/01/15 05:23:38;;;;;;;3.10;2.77;;;-1.50;86.80;-2.60;99478.00;;;;5115048;28;20243;-74
2022/01/15 05:26:06;;;;;;;3.77;3.47;;;-1.60;86.70;-2.60;99488.00;;;;5115374;28;20204;-74
2022/01/15 05:28:33;;;;;;;3.50;3.20;;;-1.60;87.00;-2.60;99490.00;;;;5115191;28;20290;-74
2022/01/15 05:31:00;;;;;;;5.33;2.60;;;-1.70;87.30;-2.60;99484.00;;;;5115189;28;20218;-74
2022/01/15 05:33:26;;;;;;;1.77;1.67;;;-1.60;87.50;-2.70;99489.00;;;;5115155;28;20196;-74
2022/01/15 05:35:53;;;;;;;2.47;2.30;;;-1.70;87.60;-2.70;99486.00;;;;5115085;28;20533;-73
2022/01/15 05:38:19;;;;;;;3.17;2.97;;;-1.70;87.50;-2.60;99480.00;;;;5097018;28;20209;-74
2022/01/15 05:40:46;;;;;;;3.97;3.07;;;-1.70;88.70;-2.60;99491.00;;;;5114937;28;20243;-74
2022/01/15 05:43:14;;;;;;;2.90;2.70;;;-1.70;88.10;-2.70;99487.00;;;;5114812;28;20519;-74
2022/01/15 05:45:45;;;;;;;1.77;1.67;;;-1.60;88.00;-2.50;99480.00;;;;5114888;28;20215;-74
2022/01/15 05:48:11;;;;;;;2.13;2.03;;;-1.60;88.10;-2.60;99479.00;;;;5114729;28;20207;-74
2022/01/15 05:50:38;;;;;;;3.20;2.70;;;-1.60;87.70;-2.60;99487.00;;;;5114754;28;20785;-74
2022/01/15 05:53:04;;;;;;;2.63;2.47;;;-1.60;87.40;-2.80;99490.00;;;;5096817;28;20291;-74
2022/01/15 05:55:31;;;;;;;2.50;2.13;;;-1.70;87.80;-2.80;99471.00;;;;5114592;28;20646;-74
2022/01/15 05:57:57;;;;;;;2.60;2.37;;;-1.70;89.00;-2.70;99484.00;;;;5114468;28;20306;-73
2022/01/15 06:00:24;;;;;;;3.37;2.83;;;-1.70;89.10;-2.90;99488.00;;;;5114577;28;20225;-74
2022/01/15 06:02:51;;;;;;;4.73;3.30;;;-1.70;89.10;-2.70;99483.00;;;;5114328;28;20210;-74
2022/01/15 06:05:17;;;;;;;3.47;3.17;;;-1.70;90.00;-2.60;99491.00;;;;5114712;28;20288;-74
2022/01/15 06:07:44;;;;;;;2.57;2.47;;;-1.70;90.50;-2.60;99479.00;;;;5114496;28;20198;-74
2022/01/15 06:10:13;;;;;;;7.37;3.40;;;-1.60;90.70;-2.70;99483.00;;;;5114388;28;20255;-74
2022/01/15 06:12:43;;;;;;;2.13;2.03;;;-1.60;90.90;-2.60;99481.00;;;;5114465;28;20279;-74
2022/01/15 06:15:11;;;;;;;2.47;2.27;;;-1.60;91.30;-2.60;99480.00;;;;5114532;28;20639;-75
2022/01/15 06:17:38;;;;;;;5.37;2.47;;;-1.60;91.70;-2.60;99479.00;;;;5114268;28;20228;-74
2022/01/15 06:20:10;;;;;;;2.50;2.30;;;-1.60;91.90;-2.70;99483.00;;;;5096375;28;20204;-74
2022/01/15 06:22:37;;;;;;;1.80;1.70;;;-1.70;92.10;-2.80;99480.00;;;;5114674;28;20212;-74
2022/01/15 06:25:05;;;;;;;2.93;2.73;;;-1.70;92.30;-2.70;99491.00;;;;5121011;28;20305;-74
2022/01/15 06:27:32;;;;;;;2.60;2.40;;;-1.70;93.00;-2.60;99485.00;;;;5121326;28;20187;-73
2022/01/15 06:29:59;;;;;;;5.57;4.03;;;-1.60;93.40;-2.50;99481.00;;;;5120767;28;20263;-74
2022/01/15 06:32:27;;;;;;;2.90;2.70;;;-1.60;93.80;-2.50;99488.00;;;;5121145;28;20211;-74
2022/01/15 06:34:54;;;;;;;3.27;3.07;;;-1.50;93.80;-2.60;99473.00;;;;5120917;28;20250;-74
2022/01/15 06:37:22;;;;;;;3.23;3.03;;;-1.50;93.80;-2.50;99476.00;;;;5120860;28;20597;-74
2022/01/15 06:39:48;;;;;;;2.07;1.90;;;-1.50;94.00;-2.60;99470.00;;;;5120885;28;20681;-74
2022/01/15 06:42:17;;;;;;;3.13;2.83;;;-1.50;94.00;-2.50;99471.00;;;;5120894;28;20205;-74
2022/01/15 06:44:43;;;;;;;3.67;2.80;;;-1.50;95.10;-2.50;99472.00;;;;5120807;28;20312;-74
2022/01/15 06:47:10;;;;;;;2.63;2.43;;;-1.60;94.30;-2.50;99474.00;;;;5120913;28;20208;-74
2022/01/15 06:49:37;;;;;;;6.17;2.97;;;-1.50;94.60;-2.60;99463.00;;;;5120681;28;20290;-74
2022/01/15 06:52:07;;;;;;;2.67;2.53;;;-1.50;94.50;-2.50;99460.00;;;;5120914;28;20261;-74
2022/01/15 06:54:34;;;;;;;3.57;3.17;;;-1.50;94.70;-2.60;99468.00;;;;5120761;28;20605;-74
2022/01/15 06:57:00;;;;;;;1.90;1.80;;;-1.50;94.60;-2.50;99471.00;;;;5120715;28;20225;-74
2022/01/15 06:59:27;;;;;;;4.10;3.60;;;-1.50;94.60;-2.50;99468.00;;;;5120702;28;20557;-73
2022/01/15 07:01:53;;;;;;;6.37;4.03;;;-1.50;94.80;-2.40;99459.00;;;;5102828;28;20299;-75
2022/01/15 07:04:20;;;;;;;4.77;3.03;;;-1.50;94.90;-2.40;99462.00;;;;5102759;28;20339;-74
2022/01/15 07:06:46;;;;;;;3.20;2.90;;;-1.40;94.90;-2.40;99467.00;;;;5120685;28;20207;-74
2022/01/15 07:09:13;;;;;;;2.40;2.20;;;-1.40;94.70;-2.60;99458.00;;;;5120584;28;20652;-74
2022/01/15 07:11:42;;;;;;;1.77;1.67;;;-1.40;95.40;-2.60;99452.00;;;;5120703;28;20207;-74
2022/01/15 07:14:09;;;;;;;1.90;1.80;;;-1.50;94.70;-2.50;99450.00;;;;5120475;28;20295;-74
2022/01/15 07:16:36;;;;;;;3.07;2.83;;;-1.40;94.60;-2.50;99451.00;;;;5120381;28;20221;-74
2022/01/15 07:19:04;;;;;;;2.93;2.20;;;-1.40;94.50;-2.60;99464.00;;;;5120530;28;20241;-74
2022/01/15 07:21:31;;;;;;;2.27;2.07;;;-1.50;94.50;-2.50;99450.00;;;;5124955;28;20214;-74
2022/01/15 07:23:57;;;;;;;2.60;2.50;;;-1.50;94.80;-2.50;99464.00;;;;5121601;28;20322;-74
2022/01/15 07:26:24;;;;;;;2.37;2.27;;;-1.50;94.80;-2.50;99463.00;;;;5121292;28;20585;-74
2022/01/15 07:28:52;;;;;;;7.30;2.57;;;-1.50;94.90;-2.50;99456.00;;;;5120786;28;20575;-74
2022/01/15 07:31:19;;;;;;;2.60;2.40;;;-1.50;94.60;-2.50;99456.00;;;;5120707;28;20300;-74
2022/01/15 07:33:46;;;;;;;6.43;3.13;;;-1.50;94.60;-2.50;99452.00;;;;5120862;28;20346;-74
2022/01/15 07:36:13;;;;;;;2.37;2.27;;;-1.50;94.50;-2.50;99450.00;;;;5118416;28;20270;-75
2022/01/15 07:38:39;;;;;;;3.23;2.93;;;-1.50;94.50;-2.50;99445.00;;;;5099743;28;20700;-74
2022/01/15 07:41:11;;;;;;;1.97;1.87;;;-1.50;94.30;-2.50;99452.00;;;;5117223;28;20228;-73
2022/01/15 07:43:37;;;;;;;3.97;3.67;;;-1.50;94.30;-2.50;99453.00;;;;5116916;28;20588;-74
2022/01/15 07:46:04;;;;;;;9.00;3.10;;;-1.40;94.00;-2.40;99450.00;;;;5099089;28;20239;-75
2022/01/15 07:48:33;;;;;;;2.93;2.03;;;-1.40;93.90;-2.50;99449.00;;;;5117078;28;20217;-74
2022/01/15 07:51:00;;;;;;;1.23;1.23;;;-1.50;93.60;-2.40;99440.00;;;;5117003;28;20220;-75
2022/01/15 07:53:27;;;;;;;2.73;2.50;;;-1.50;93.70;-2.40;99437.00;;;;5098788;28;20292;-74
2022/01/15 07:55:53;;;;;;;2.17;2.07;;;-1.40;93.60;-2.40;99440.00;;;;5116773;28;20201;-74
2022/01/15 07:58:20;;;;;;;2.17;2.07;;;-1.40;93.40;-2.30;99440.00;;;;5116611;28;20261;-75
2022/01/15 08:00:49;;;;;;;17.53;3.03;;;-1.40;93.50;-2.20;99442.00;;;;5098735;28;20598;-74
2022/01/15 08:03:16;;;;;;;2.63;2.37;;;-1.40;93.50;-2.30;99435.00;;;;5116437;28;20561;-75
2022/01/15 08:05:45;;;;;;;2.83;2.63;;;-1.30;93.20;-2.30;99430.00;;;;5116656;28;20217;-74
2022/01/15 08:08:12;;;;;;;2.90;2.70;;;-1.40;93.30;-2.30;99439.00;;;;5116449;28;20197;-74
2022/01/15 08:10:38;;;;;;;4.30;3.43;;;-1.30;93.30;-2.30;99437.00;;;;5116332;28;20194;-74
2022/01/15 08:13:07;;;;;;;1.83;1.73;;;-1.30;93.40;-2.30;99434.00;;;;5116258;28;20189;-73
2022/01/15 08:15:34;;;;;;;2.30;2.20;;;-1.40;93.50;-2.20;99411.00;;;;5116214;28;20205;-74
2022/01/15 08:18:01;;;;;;;2.13;2.03;;;-1.30;93.70;-2.20;99428.00;;;;5116207;28;20200;-74
2022/01/15 08:20:30;;;;;;;2.27;2.17;;;-1.30;93.30;-2.30;99429.00;;;;5098126;28;20687;-74
2022/01/15 08:22:57;;;;;;;3.50;3.20;;;-1.30;92.80;-2.30;99434.00;;;;5116170;28;20528;-75
2022/01/15 08:25:25;;;;;;;1.90;1.80;;;-1.30;92.80;-2.30;99426.00;;;;5115855;28;20689;-75
2022/01/15 08:27:53;;;;;;;2.00;1.90;;;-1.30;93.00;-2.20;99430.00;;;;5116214;28;20212;-75
2022/01/15 08:30:20;;;;;;;5.47;2.73;;;-1.30;93.50;-2.00;99436.00;;;;5116193;28;20218;-75
2022/01/15 08:32:48;;;;;;;2.20;2.10;;;-1.10;93.20;-2.00;99435.00;;;;5116044;28;20220;-75
2022/01/15 08:35:16;;;;;;;2.83;2.57;;;-1.10;92.60;-1.90;99387.00;;;;5116048;28;20632;-75
2022/01/15 08:37:44;;;;;;;3.00;2.57;;;-1.00;92.60;-1.80;99429.00;;;;5115844;28;20221;-75
2022/01/15 08:40:16;;;;;;;2.27;2.17;;;-1.00;92.30;-1.70;99426.00;;;;5115943;28;20212;-75
2022/01/15 08:42:43;;;;;;;2.17;2.07;;;-0.90;92.20;-1.60;99434.00;;;;5115611;28;20358;-76
2022/01/15 08:45:11;;;;;;;2.83;2.63;;;-0.80;91.80;-1.60;99418.00;;;;5115603;28;20214;-75
2022/01/15 08:47:40;;;;;;;1.87;1.77;;;-0.70;91.10;-1.60;99416.00;;;;5097311;28;20587;-75
2022/01/15 08:50:11;;;;;;;2.50;2.40;;;-0.70;91.10;-1.60;99422.00;;;;5115634;28;20212;-75
2022/01/15 08:52:40;;;;;;;3.13;2.90;;;-0.70;90.80;-1.60;99417.00;;;;5115710;28;20193;-75
2022/01/15 08:55:09;;;;;;;2.13;2.00;;;-0.60;90.70;-1.50;99412.00;;;;5115615;28;20193;-75
2022/01/15 08:57:36;;;;;;;2.33;2.23;;;-0.60;90.70;-1.40;99417.00;;;;5115528;28;20279;-75
2022/01/15 09:00:07;;;;;;;6.33;2.63;;;-0.60;89.70;-1.40;99413.00;;;;5115488;28;20220;-75
2022/01/15 09:02:34;;;;;;;3.93;3.60;;;-0.60;89.50;-1.70;99391.00;;;;5115490;28;20519;-74
2022/01/15 09:05:00;;;;;;;3.40;3.20;;;-0.60;89.40;-1.50;99415.00;;;;5115158;28;20240;-75
2022/01/15 09:07:27;;;;;;;5.13;4.63;;;-0.60;89.20;-1.50;99414.00;;;;5115298;28;20230;-74
2022/01/15 09:09:53;;;;;;;3.07;2.87;;;-0.60;89.10;-1.50;99418.00;;;;5115152;28;20287;-74
2022/01/15 09:12:22;;;;;;;2.33;2.13;;;-0.60;88.70;-1.50;99420.00;;;;5115318;28;20205;-74
2022/01/15 09:14:49;;;;;;;3.60;3.30;;;-0.60;89.40;-1.40;99422.00;;;;5114953;28;20189;-74
2022/01/15 09:17:16;;;;;;;3.47;3.17;;;-0.50;89.50;-1.40;99407.00;;;;5115040;28;20712;-75
2022/01/15 09:19:42;;;;;;;3.53;3.03;;;-0.50;89.60;-1.40;99421.00;;;;5097421;28;20291;-75
2022/01/15 09:22:11;;;;;;;3.27;3.00;;;-0.50;89.80;-1.30;99412.00;;;;5115098;28;20386;-75
2022/01/15 09:24:38;;;;;;;3.83;2.67;;;-0.40;90.00;-1.30;99413.00;;;;5115087;28;20532;-75
2022/01/15 09:32:32;;;;;;;3.50;3.03;;;-0.40;89.80;-1.20;99403.00;;;;5114732;28;20232;-74
2022/01/15 09:34:59;;;;;;;3.97;3.47;;;-0.20;89.90;-1.10;99386.00;;;;5114956;28;20196;-76
2022/01/15 09:37:25;;;;;;;3.67;2.10;;;-0.30;89.70;-1.00;99406.00;;;;5115002;28;20654;-74
2022/01/15 09:39:52;;;;;;;3.53;3.23;;;-0.10;90.00;-0.80;99411.00;;;;5115028;28;20566;-74
2022/01/15 09:42:21;;;;;;;2.57;2.47;;;0.00;89.90;-0.60;99418.00;;;;5115156;28;20277;-76
2022/01/15 09:44:50;;;;;;;2.17;1.97;;;0.10;89.70;-0.60;99421.00;;;;5114721;28;20225;-75
2022/01/15 09:47:17;;;;;;;2.30;2.20;;;0.20;88.30;-0.50;99421.00;;;;5115039;28;20209;-76
2022/01/15 09:49:46;;;;;;;2.53;1.87;;;0.30;87.90;-0.40;99416.00;;;;5114689;28;20295;-75
2022/01/15 09:52:13;;;;;;;4.20;3.40;;;0.30;87.20;-0.50;99410.00;;;;5097282;28;20506;-75
2022/01/15 09:54:40;;;;;;;2.60;2.40;;;0.40;86.90;-0.50;99408.00;;;;5096907;28;20323;-74
2022/01/15 09:57:09;;;;;;;7.90;3.37;;;0.30;86.90;-0.40;99396.00;;;;5114725;28;20201;-74
2022/01/15 09:59:38;;;;;;;2.00;1.90;;;0.40;86.90;-0.40;99402.00;;;;5114082;28;20225;-74
2022/01/15 10:02:05;;;;;;;2.93;2.73;;;0.40;87.00;-0.30;99395.00;;;;5114563;28;20220;-74
2022/01/15 10:04:34;;;;;;;2.63;2.43;;;0.50;86.30;-0.60;99394.00;;;;5114540;28;20261;-78
2022/01/15 10:07:13;;;;;;;2.50;2.30;;;0.40;87.10;-0.30;99394.00;;;;5114386;28;20681;-76
2022/01/15 10:09:41;;;;;;;2.33;2.23;;;0.60;88.80;-0.20;99399.00;;;;5114603;28;20289;-77
2022/01/15 10:12:10;;;;;;;3.60;3.37;;;0.70;88.50;0.00;99397.00;;;;5114499;28;20309;-77
2022/01/15 10:14:40;;;;;;;2.13;2.03;;;0.80;88.80;0.20;99398.00;;;;5114509;28;20254;-78
2022/01/15 10:17:23;;;;;;;4.70;3.17;;;0.90;87.60;0.00;99391.00;;;;5114383;28;20242;-81
2022/01/15 10:19:53;;;;;;;3.47;3.20;;;0.90;86.90;0.00;99384.00;;;;5114533;28;20193;-75
2022/01/15 10:22:24;;;;;;;2.33;2.23;;;0.90;87.10;0.20;99383.00;;;;5114239;28;20226;-77
2022/01/15 10:24:58;;;;;;;3.07;2.73;;;1.00;87.30;0.30;99373.00;;;;5114293;28;20235;-76
2022/01/15 10:27:31;;;;;;;1.77;1.57;;;1.10;87.50;0.20;99379.00;;;;5114308;28;20537;-82
2022/01/15 10:30:04;;;;;;;1.60;1.50;;;1.10;86.90;0.40;99367.00;;;;5114762;28;20222;-79
2022/01/15 10:32:35;;;;;;;2.60;2.40;;;1.10;87.20;0.40;99378.00;;;;5114219;28;20210;-80
2022/01/15 10:35:12;;;;;;;7.90;3.30;;;1.20;87.10;0.40;99388.00;;;;5114456;28;20255;-81
2022/01/15 10:37:50;;;;;;;3.40;1.77;;;1.20;87.00;0.40;99377.00;;;;5114388;28;20221;-80
2022/01/15 10:40:19;;;;;;;3.93;3.10;;;1.30;87.20;0.50;99379.00;;;;5114336;28;20626;-83
2022/01/15 10:42:55;;;;;;;2.73;2.53;;;1.30;87.30;0.50;99372.00;;;;5114221;28;20229;-84
2022/01/15 10:45:26;;;;;;;1.57;1.50;;;1.30;87.10;0.50;99355.00;;;;5096222;28;20240;-79
2022/01/15 10:47:56;;;;;;;4.80;3.27;;;1.40;86.40;0.50;99358.00;;;;5113882;28;20294;-79
2022/01/15 10:50:27;;;;;;;7.07;4.03;;;1.40;86.90;0.60;99352.00;;;;5114353;28;20232;-80
2022/01/15 10:53:07;;;;;;;2.83;2.63;;;1.40;87.10;0.60;99351.00;;;;5114762;28;20218;-79
2022/01/15 10:55:34;;;;;;;2.60;2.50;;;1.40;86.60;0.60;99312.00;;;;5114811;28;20641;-81
2022/01/15 10:58:06;;;;;;;6.80;3.20;;;1.40;87.00;0.70;99340.00;;;;5113947;28;20227;-78
2022/01/15 11:00:41;;;;;;;2.83;2.57;;;1.50;86.80;0.50;99342.00;;;;5114025;28;20711;-79
2022/01/15 11:03:12;;;;;;;5.17;3.47;;;1.40;86.50;0.60;99338.00;;;;5113760;28;20721;-80
2022/01/15 11:05:40;;;;;;;2.90;2.70;;;1.40;87.60;0.60;99330.00;;;;5113924;28;20191;-79
2022/01/15 11:08:13;;;;;;;2.93;1.93;;;1.50;87.60;0.80;99333.00;;;;5113879;28;20305;-80
2022/01/15 11:10:48;;;;;;;8.67;2.93;;;1.60;87.30;0.90;99322.00;;;;5108696;28;20190;-82
2022/01/15 11:13:19;;;;;;;7.47;3.83;;;1.70;86.70;1.10;99319.00;;;;5131096;28;20229;-79
2022/01/15 11:15:49;;;;;;;5.13;2.93;;;1.80;86.80;1.30;99321.00;;;;5119279;28;20253;-77
2022/01/15 11:18:21;;;;;;;3.43;3.13;;;1.90;85.80;1.30;99300.00;;;;5118438;28;20657;-77
2022/01/15 11:20:54;;;;;;;3.53;3.27;;;2.00;85.10;1.20;99322.00;;;;5118033;28;20198;-77
2022/01/15 11:23:23;;;;;;;3.83;3.33;;;2.10;84.90;1.50;99277.00;;;;5122322;28;20209;-81